Flight Track Log - Related Links

Times and Time Zones

All times are in EST time to prevent confusion due to time zone crossing. See the FLG3439 flight status page for this flight to view local times or setup timezone preferences in your user account.

Time Position Orientation Groundspeed Altitude Reporting Facility
EST Latitude Longitude Course Direction KTS MPH feet Rate Location/Type
Mon 04:28:14 PM 42.2106 -83.3650 213° Southwest 157 181 1,200  Level Cleveland Center
Mon 04:28:51 PM 42.1856 -83.3867 213° Southwest 169 194 3,000 2,478 Climbing Cleveland Center
Mon 04:29:46 PM 42.1450 -83.4261 216° Southwest 234 269 5,000 2,268 Climbing Cleveland Center
Mon 04:30:13 PM 42.1417 -83.4631 263° West 231 266 6,100 2,955 Climbing Cleveland Center
Mon 04:30:53 PM 42.1539 -83.5231 285° West 249 287 8,300 3,000 Climbing Cleveland Center
Mon 04:31:15 PM 42.1622 -83.5536 290° West 251 289 9,200 1,855 Climbing Cleveland Center
Mon 04:31:48 PM 42.1853 -83.6036 302° West 281 323 10,000 871 Climbing Cleveland Center
Mon 04:32:17 PM 42.1939 -83.6539 283° West 303 349 10,100 1,253 Climbing Cleveland Center
Mon 04:33:19 PM 42.2117 -83.7783 281° West 330 380 11,900 1,500 Climbing Cleveland Center
Mon 04:34:21 PM 42.2281 -83.9097 280° West 351 404 13,200 1,317 Climbing Cleveland Center
Mon 04:35:22 PM 42.2450 -84.0447 280° West 363 418 14,600 1,171 Climbing Cleveland Center
Mon 04:36:24 PM 42.2611 -84.1833 279° West 374 430 15,600 677 Climbing Cleveland Center
Mon 04:37:26 PM 42.2608 -84.3219 270° West 372 428 16,000 -119 Climbing Cleveland Center
Mon 04:38:05 PM 42.2594 -84.4333 269° West 376 433 15,400 -1,069 Descending Chicago Center
Mon 04:39:07 PM 42.2569 -84.5686 269° West 367 422 14,200 -1,306 Descending Chicago Center
Mon 04:40:09 PM 42.2542 -84.7033 268° West 361 415 12,700 -1,452 Descending Chicago Center
Mon 04:41:11 PM 42.2519 -84.8375 269° West 359 413 11,200 -919 Descending Chicago Center
Mon 04:42:13 PM 42.2489 -84.9608 268° West 341 392 10,800 -774 Descending Chicago Center
Mon 04:43:15 PM 42.2594 -85.0572 278° West 296 341 9,600 -1,694 Descending Chicago Center
Mon 04:44:17 PM 42.2969 -85.1506 299° West 244 281 7,300 -1,742 Descending Chicago Center
Mon 04:45:19 PM 42.3247 -85.2297 295° West 234 269 6,000 -629 Descending Chicago Center
Mon 04:46:21 PM 42.3519 -85.3119 294° West 237 273 6,000 -194 Level Chicago Center
Mon 04:47:23 PM 42.3442 -85.3925 263° West 219 252 5,600 -823 Descending Chicago Center
Mon 04:48:25 PM 42.3353 -85.4586 260° West 190 219 4,300 -1,258 Descending Chicago Center
Mon 04:49:27 PM 42.3161 -85.5247 249° West 190 219 3,000 -1,161 Descending Chicago Center
Mon 04:50:29 PM 42.2869 -85.5597 222° Southwest 157 181 1,900 -774 Descending Chicago Center
Mon 04:51:31 PM 42.2419 -85.5544 175° South 141 162 1,400 -484 Descending Chicago Center
Mon 04:53:00 PM 42.2333 -85.5500 North  Level FlightAware Approximate

Login

Don't have an account? Register now (free) for customized features, flight alerts, and more!